createdAt,value
2019-02-04T00:00:45.596Z,102457.16
2019-02-04T00:02:53.464Z,102464.34
2019-02-04T00:06:04.354Z,102465.56
2019-02-04T00:07:08.847Z,102464.34
2019-02-04T00:09:16.743Z,102465.16
2019-02-04T00:11:24.285Z,102466.00
2019-02-04T00:15:38.551Z,102463.44
2019-02-04T00:16:42.961Z,102467.80
2019-02-04T00:18:50.736Z,102462.51
2019-02-04T00:20:58.528Z,102468.89
2019-02-04T00:22:03.431Z,102472.36
2019-02-04T00:24:11.299Z,102466.50
2019-02-04T00:25:15.410Z,102459.64
2019-02-04T00:26:19.796Z,102461.34
2019-02-04T00:27:24.196Z,102456.25
2019-02-04T00:28:28.443Z,102456.17
2019-02-04T00:34:50.079Z,102432.49
2019-02-04T00:38:01.227Z,102433.66
2019-02-04T00:40:16.405Z,102439.80
2019-02-04T00:44:32.153Z,102437.06
2019-02-04T00:46:39.701Z,102430.13
2019-02-04T00:48:47.477Z,102428.91
2019-02-04T00:50:55.303Z,102433.99
2019-02-04T00:53:03.105Z,102433.99
2019-02-04T00:54:07.257Z,102431.48
2019-02-04T00:56:15.399Z,102436.98
2019-02-04T00:57:19.811Z,102436.50
2019-02-04T01:02:38.996Z,102444.85
2019-02-04T01:09:00.136Z,102444.21
2019-02-04T01:11:12.124Z,102440.34
2019-02-04T01:13:19.924Z,102449.05
2019-02-04T01:14:24.128Z,102449.20
2019-02-04T01:15:28.640Z,102451.30
2019-02-04T01:17:36.621Z,102449.05
2019-02-04T01:19:44.101Z,102453.61
2019-02-04T01:25:02.695Z,102456.19
2019-02-04T01:29:17.503Z,102447.88
2019-02-04T01:31:26.386Z,102458.45
2019-02-04T01:32:30.882Z,102460.99
2019-02-04T01:34:39.429Z,102463.17
2019-02-04T01:37:50.389Z,102458.41
2019-02-04T01:38:54.902Z,102459.30
2019-02-04T01:39:59.095Z,102460.10
2019-02-04T01:43:09.990Z,102448.53
2019-02-04T01:44:14.401Z,102450.30
2019-02-04T01:47:25.364Z,102442.44
2019-02-04T01:48:29.563Z,102442.36
2019-02-04T01:50:37.153Z,102439.77
2019-02-04T01:51:41.570Z,102439.86
2019-02-04T01:53:49.765Z,102440.91
2019-02-04T01:55:57.362Z,102448.33
2019-02-04T02:00:17.244Z,102449.45
2019-02-04T02:02:24.759Z,102454.58
2019-02-04T02:04:33.245Z,102458.45
2019-02-04T02:06:41.053Z,102462.23
2019-02-04T02:09:51.941Z,102467.24
2019-02-04T02:20:27.333Z,102470.63
2019-02-04T02:22:35.204Z,102468.86
2019-02-04T02:23:39.616Z,102466.63
2019-02-04T02:24:44.947Z,102461.06
2019-02-04T02:27:55.928Z,102457.11
2019-02-04T02:29:00.540Z,102460.58
2019-02-04T02:32:15.917Z,102459.82
2019-02-04T02:37:36.123Z,102452.48
2019-02-04T02:40:47.103Z,102441.22
2019-02-04T02:42:54.906Z,102438.16
2019-02-04T02:43:59.287Z,102435.09
2019-02-04T02:45:07.016Z,102437.35
2019-02-04T02:49:21.877Z,102434.85
2019-02-04T02:50:26.369Z,102433.48
2019-02-04T02:54:41.960Z,102425.34
2019-02-04T03:01:04.011Z,102420.74
2019-02-04T03:03:11.616Z,102419.73
2019-02-04T03:06:23.777Z,102420.26
2019-02-04T03:07:28.163Z,102419.41
2019-02-04T03:08:32.635Z,102422.44
2019-02-04T03:10:41.139Z,102420.70
2019-02-04T03:12:48.908Z,102414.37
2019-02-04T03:14:56.664Z,102413.00
2019-02-04T03:18:08.116Z,102417.36
2019-02-04T03:19:12.512Z,102413.97
2019-02-04T03:20:16.935Z,102418.72
2019-02-04T03:23:28.069Z,102422.39
2019-02-04T03:26:39.213Z,102423.73
2019-02-04T03:27:43.351Z,102421.98
2019-02-04T03:28:47.507Z,102428.44
2019-02-04T03:31:58.414Z,102422.44
2019-02-04T03:33:02.938Z,102419.73
2019-02-04T03:34:07.434Z,102421.83
2019-02-04T03:35:11.913Z,102414.16
2019-02-04T03:37:19.685Z,102411.70
2019-02-04T03:42:38.190Z,102411.18
2019-02-04T03:46:53.061Z,102411.30
2019-02-04T03:48:07.188Z,102410.02
2019-02-04T03:50:09.341Z,102411.39
2019-02-04T03:52:16.855Z,102401.14
2019-02-04T03:54:25.757Z,102400.82
2019-02-04T03:59:43.498Z,102400.66
2019-02-04T04:03:59.074Z,102405.02
2019-02-04T04:05:03.589Z,102400.58
2019-02-04T04:08:17.419Z,102408.64
2019-02-04T04:11:28.547Z,102406.95
2019-02-04T04:13:36.415Z,102406.30
2019-02-04T04:14:40.620Z,102410.58
2019-02-04T04:15:45.038Z,102402.43
2019-02-04T04:17:52.832Z,102405.02
2019-02-04T04:20:00.835Z,102397.11
2019-02-04T04:21:05.240Z,102395.83
2019-02-04T04:24:16.123Z,102386.95
2019-02-04T04:25:20.525Z,102392.92
2019-02-04T04:26:24.944Z,102389.05
2019-02-04T04:28:32.515Z,102387.59
2019-02-04T04:29:37.124Z,102387.59
2019-02-04T04:31:44.628Z,102393.72
2019-02-04T04:33:52.217Z,102394.94
2019-02-04T04:34:56.949Z,102401.79
2019-02-04T04:36:01.335Z,102392.76
2019-02-04T04:39:13.439Z,102398.41
2019-02-04T04:41:20.975Z,102388.89
2019-02-04T04:43:28.823Z,102395.83
2019-02-04T04:44:33.953Z,102394.45
2019-02-04T04:47:46.001Z,102390.66
2019-02-04T04:48:50.174Z,102387.15
2019-02-04T04:49:54.577Z,102394.41
2019-02-04T04:54:09.601Z,102394.53
2019-02-04T04:55:18.546Z,102382.44
2019-02-04T04:56:22.702Z,102385.91
2019-02-04T04:59:34.622Z,102382.44
2019-02-04T05:00:39.073Z,102380.34
2019-02-04T05:01:43.490Z,102375.54
2019-02-04T05:04:55.683Z,102378.44
2019-02-04T05:07:03.278Z,102381.10
2019-02-04T05:08:07.692Z,102377.15
2019-02-04T05:09:11.897Z,102381.50
2019-02-04T05:10:18.060Z,102382.39
2019-02-04T05:12:25.945Z,102376.11
2019-02-04T05:19:50.340Z,102377.88
2019-02-04T05:21:57.953Z,102384.73
2019-02-04T05:25:09.532Z,102371.19
2019-02-04T05:26:13.696Z,102374.97
2019-02-04T05:28:21.225Z,102375.86
2019-02-04T05:30:29.020Z,102367.64
2019-02-04T05:31:33.429Z,102374.09
2019-02-04T05:32:37.839Z,102373.20
2019-02-04T05:33:42.250Z,102373.61
2019-02-04T05:35:50.048Z,102373.28
2019-02-04T05:37:57.573Z,102374.09
2019-02-04T05:41:12.779Z,102368.52
2019-02-04T05:42:17.021Z,102366.02
2019-02-04T05:45:27.987Z,102365.30
2019-02-04T05:46:32.153Z,102354.50
2019-02-04T05:49:43.067Z,102354.25
2019-02-04T05:51:50.589Z,102355.47
2019-02-04T05:52:54.764Z,102354.98
2019-02-04T05:53:59.486Z,102359.73
2019-02-04T05:55:05.207Z,102358.53
2019-02-04T06:01:28.775Z,102353.00
2019-02-04T06:05:43.052Z,102349.30
2019-02-04T06:08:54.244Z,102342.77
2019-02-04T06:09:58.669Z,102342.28
2019-02-04T06:11:03.067Z,102340.30
2019-02-04T06:14:14.243Z,102339.75
2019-02-04T06:16:22.049Z,102339.83
2019-02-04T06:23:47.589Z,102341.77
2019-02-04T06:25:55.693Z,102337.48
2019-02-04T06:26:59.828Z,102340.80
2019-02-04T06:28:04.301Z,102342.92
2019-02-04T06:29:08.708Z,102344.22
2019-02-04T06:30:14.554Z,102342.92
2019-02-04T06:33:25.731Z,102344.14
2019-02-04T06:34:30.111Z,102342.56
2019-02-04T06:35:35.515Z,102336.56
2019-02-04T06:39:49.926Z,102338.17
2019-02-04T06:40:54.685Z,102341.40
2019-02-04T06:46:14.812Z,102330.88
2019-02-04T06:47:19.273Z,102325.31
2019-02-04T06:49:27.181Z,102327.25
2019-02-04T06:52:38.084Z,102321.28
2019-02-04T06:53:42.493Z,102326.05
2019-02-04T06:54:46.959Z,102320.56
2019-02-04T06:55:51.685Z,102332.25
2019-02-04T07:01:13.733Z,102333.53
2019-02-04T07:05:28.088Z,102331.23
2019-02-04T07:07:35.847Z,102320.36
2019-02-04T07:08:40.355Z,102320.69
2019-02-04T07:09:44.740Z,102323.75
2019-02-04T07:10:49.525Z,102322.13
2019-02-04T07:11:54.240Z,102323.14
2019-02-04T07:12:58.651Z,102323.67
2019-02-04T07:14:03.061Z,102325.84
2019-02-04T07:16:12.180Z,102322.86
2019-02-04T07:18:19.781Z,102325.12
2019-02-04T07:19:24.850Z,102321.49
2019-02-04T07:20:29.172Z,102319.80
2019-02-04T07:21:33.612Z,102320.84
2019-02-04T07:23:41.413Z,102315.44
2019-02-04T07:24:46.114Z,102317.94
2019-02-04T07:25:51.257Z,102318.06
2019-02-04T07:26:56.696Z,102314.27
2019-02-04T07:30:12.274Z,102313.88
2019-02-04T07:31:16.679Z,102316.93
2019-02-04T07:33:24.473Z,102317.98
2019-02-04T07:34:28.890Z,102314.63
2019-02-04T07:36:37.405Z,102315.39
2019-02-04T07:38:44.990Z,102316.41
2019-02-04T07:39:49.384Z,102320.76
2019-02-04T07:43:00.581Z,102308.10
2019-02-04T07:44:05.292Z,102310.56
2019-02-04T07:45:10.212Z,102305.13
2019-02-04T07:47:18.012Z,102304.64
2019-02-04T07:48:22.221Z,102302.95
2019-02-04T07:50:30.013Z,102316.08
2019-02-04T07:51:34.406Z,102314.87
2019-02-04T07:53:42.163Z,102316.68
2019-02-04T07:56:53.312Z,102310.59
2019-02-04T07:57:58.044Z,102309.45
2019-02-04T08:01:15.744Z,102309.45
2019-02-04T08:02:20.164Z,102300.42
2019-02-04T08:06:35.731Z,102290.58
2019-02-04T08:08:43.219Z,102297.70
2019-02-04T08:10:51.887Z,102293.83
2019-02-04T08:13:01.885Z,102302.41
2019-02-04T08:14:05.556Z,102296.10
2019-02-04T08:15:21.724Z,102298.80
2019-02-04T08:23:49.728Z,102295.50
2019-02-04T08:25:57.311Z,102287.53
2019-02-04T08:27:01.986Z,102284.95
2019-02-04T08:28:07.257Z,102285.43
2019-02-04T08:31:26.276Z,102287.16
2019-02-04T08:32:30.416Z,102297.41
2019-02-04T08:33:34.832Z,102293.18
2019-02-04T08:34:39.217Z,102295.09
2019-02-04T08:36:47.289Z,102297.46
2019-02-04T08:37:51.689Z,102296.57
2019-02-04T08:38:56.084Z,102286.61
2019-02-04T08:42:07.309Z,102288.49
2019-02-04T08:43:11.705Z,102290.74
2019-02-04T08:44:16.089Z,102287.28
2019-02-04T08:47:27.305Z,102285.43
2019-02-04T08:48:31.708Z,102292.62
2019-02-04T08:50:39.676Z,102284.06
2019-02-04T08:51:45.781Z,102290.59
2019-02-04T08:54:57.973Z,102286.91
2019-02-04T09:01:22.792Z,102274.05
2019-02-04T09:02:27.200Z,102277.37
2019-02-04T09:03:31.603Z,102275.89
2019-02-04T09:05:39.455Z,102269.05
2019-02-04T09:06:43.892Z,102272.75
2019-02-04T09:07:49.545Z,102269.19
2019-02-04T09:08:53.941Z,102269.84
2019-02-04T09:11:01.701Z,102271.28
2019-02-04T09:12:06.097Z,102273.70
2019-02-04T09:16:20.601Z,102263.86
2019-02-04T09:18:28.419Z,102249.63
2019-02-04T09:19:33.121Z,102254.92
2019-02-04T09:20:37.830Z,102257.05
2019-02-04T09:21:42.225Z,102254.48
2019-02-04T09:23:50.200Z,102252.55
2019-02-04T09:31:24.969Z,102246.97
2019-02-04T09:34:37.338Z,102244.38
2019-02-04T09:35:41.935Z,102248.87
2019-02-04T09:37:53.624Z,102245.70
2019-02-04T09:40:01.421Z,102232.42
2019-02-04T09:44:15.960Z,102241.22
2019-02-04T09:48:30.225Z,102236.28
2019-02-04T09:49:35.665Z,102235.37
2019-02-04T09:54:56.495Z,102239.48
2019-02-04T09:56:00.890Z,102238.05
2019-02-04T09:57:05.317Z,102236.66
2019-02-04T10:01:25.593Z,102232.99
2019-02-04T10:03:33.119Z,102235.92
2019-02-04T10:05:41.187Z,102236.19
2019-02-04T10:06:45.331Z,102228.93
2019-02-04T10:07:49.827Z,102222.18
2019-02-04T10:08:54.637Z,102233.23
2019-02-04T10:09:59.092Z,102228.65
2019-02-04T10:13:10.272Z,102227.27
2019-02-04T10:14:14.753Z,102228.30
2019-02-04T10:15:23.123Z,102225.78
2019-02-04T10:16:27.559Z,102222.06
2019-02-04T10:17:31.778Z,102229.30
2019-02-04T10:19:39.665Z,102229.98
2019-02-04T10:23:54.172Z,102230.52
2019-02-04T10:26:03.884Z,102235.57
2019-02-04T10:30:22.179Z,102225.53
2019-02-04T10:36:43.767Z,102242.64
2019-02-04T10:37:49.705Z,102237.75
2019-02-04T10:38:54.136Z,102238.16
2019-02-04T10:42:11.231Z,102232.58
2019-02-04T10:47:31.334Z,102233.33
2019-02-04T10:49:39.041Z,102234.02
2019-02-04T10:51:46.846Z,102228.75
2019-02-04T10:52:51.208Z,102224.27
2019-02-04T10:54:59.034Z,102212.97
2019-02-04T11:00:22.945Z,102215.80
2019-02-04T11:01:27.345Z,102214.13
2019-02-04T11:04:38.501Z,102209.95
2019-02-04T11:05:43.383Z,102211.48
2019-02-04T11:06:47.838Z,102206.74
2019-02-04T11:07:52.065Z,102212.14
2019-02-04T11:09:59.858Z,102212.74
2019-02-04T11:11:04.248Z,102204.02
2019-02-04T11:12:08.646Z,102202.80
2019-02-04T11:14:18.065Z,102209.55
2019-02-04T11:16:25.918Z,102201.72
2019-02-04T11:17:30.449Z,102206.91
2019-02-04T11:18:35.640Z,102195.53
2019-02-04T11:19:40.076Z,102191.75
2019-02-04T11:20:44.673Z,102193.61
2019-02-04T11:24:59.282Z,102189.72
2019-02-04T11:26:04.352Z,102184.27
2019-02-04T11:27:09.096Z,102187.81
2019-02-04T11:28:13.510Z,102189.12
2019-02-04T11:29:18.835Z,102192.78
2019-02-04T11:32:38.476Z,102185.78
2019-02-04T11:34:49.104Z,102198.23
2019-02-04T11:35:53.262Z,102199.73
2019-02-04T11:38:01.006Z,102203.27
2019-02-04T11:40:15.551Z,102197.91
2019-02-04T11:41:19.931Z,102202.38
2019-02-04T11:44:31.099Z,102199.20
2019-02-04T11:45:35.247Z,102208.59
2019-02-04T11:46:41.521Z,102207.23
2019-02-04T11:49:52.654Z,102200.34
2019-02-04T11:51:08.944Z,102200.07
2019-02-04T11:52:03.588Z,102192.66
2019-02-04T11:54:11.185Z,102199.85
2019-02-04T11:55:16.003Z,102188.34
2019-02-04T11:57:23.518Z,102191.08
2019-02-04T11:58:28.005Z,102190.73
2019-02-04T12:00:37.440Z,102185.46
2019-02-04T12:02:45.026Z,102190.39
2019-02-04T12:03:49.437Z,102188.08
2019-02-04T12:05:57.315Z,102184.45
2019-02-04T12:08:05.435Z,102180.63
2019-02-04T12:10:20.463Z,102181.86
2019-02-04T12:11:24.625Z,102171.23
2019-02-04T12:16:42.265Z,102171.92
2019-02-04T12:17:46.752Z,102172.89
2019-02-04T12:18:50.901Z,102174.66
2019-02-04T12:23:06.215Z,102162.85
2019-02-04T12:24:10.903Z,102162.00
2019-02-04T12:25:21.944Z,102160.06
2019-02-04T12:26:26.345Z,102159.73
2019-02-04T12:29:37.315Z,102152.50
2019-02-04T12:31:45.815Z,102147.34
2019-02-04T12:33:53.500Z,102144.81
2019-02-04T12:34:57.918Z,102148.75
2019-02-04T12:37:05.744Z,102139.92
2019-02-04T12:38:10.133Z,102139.42
2019-02-04T12:40:17.713Z,102133.45
2019-02-04T12:47:46.840Z,102121.86
2019-02-04T12:48:51.252Z,102126.22
2019-02-04T12:53:06.376Z,102133.45
2019-02-04T12:54:10.777Z,102124.73
2019-02-04T13:04:53.703Z,102119.62
2019-02-04T13:05:58.433Z,102126.03
2019-02-04T13:09:11.176Z,102120.86
2019-02-04T13:10:17.150Z,102112.94
2019-02-04T13:11:21.477Z,102117.86
2019-02-04T13:12:26.281Z,102121.56
2019-02-04T13:13:30.992Z,102131.95
2019-02-04T13:17:45.600Z,102110.56
2019-02-04T13:18:50.167Z,102105.30
2019-02-04T13:19:54.274Z,102109.44
2019-02-04T13:20:58.680Z,102100.94
2019-02-04T13:24:09.808Z,102096.17
2019-02-04T13:25:19.645Z,102100.38
2019-02-04T13:28:30.818Z,102094.41
2019-02-04T13:30:38.882Z,102079.75
2019-02-04T13:31:43.052Z,102078.31
2019-02-04T13:32:47.432Z,102082.59
2019-02-04T13:33:52.257Z,102076.52
2019-02-04T13:34:56.459Z,102080.28
2019-02-04T13:36:00.985Z,102085.58
2019-02-04T13:38:08.560Z,102078.84
2019-02-04T13:40:25.454Z,102077.78
2019-02-04T13:42:32.961Z,102077.99
2019-02-04T13:43:40.323Z,102081.70
2019-02-04T13:45:47.822Z,102078.20
2019-02-04T13:46:52.239Z,102080.91
2019-02-04T13:47:56.958Z,102083.84
2019-02-04T13:51:10.045Z,102075.67
2019-02-04T13:57:38.528Z,102060.28
2019-02-04T14:00:49.675Z,102058.38
2019-02-04T14:02:59.679Z,102054.49
2019-02-04T14:04:04.192Z,102047.69
2019-02-04T14:05:09.722Z,102037.49
2019-02-04T14:06:14.508Z,102050.52
2019-02-04T14:08:22.293Z,102035.29
2019-02-04T14:10:33.851Z,102036.92
2019-02-04T14:11:39.147Z,102038.22
2019-02-04T14:13:47.292Z,102042.31
2019-02-04T14:16:58.473Z,102030.55
2019-02-04T14:19:06.042Z,102033.67
2019-02-04T14:20:16.918Z,102021.31
2019-02-04T14:21:21.333Z,102033.61
2019-02-04T14:22:25.845Z,102021.62
2019-02-04T14:23:30.267Z,102026.73
2019-02-04T14:25:38.341Z,102030.87
2019-02-04T14:26:42.735Z,102026.69
2019-02-04T14:30:57.019Z,102030.67
2019-02-04T14:32:01.208Z,102027.81
2019-02-04T14:35:12.611Z,102020.73
2019-02-04T14:37:20.191Z,102028.81
2019-02-04T14:40:31.337Z,102009.58
2019-02-04T14:43:43.281Z,102018.00
2019-02-04T14:46:01.150Z,102013.17
2019-02-04T14:48:20.169Z,102014.61
2019-02-04T14:54:37.966Z,102007.41
2019-02-04T14:56:01.747Z,101999.56
2019-02-04T14:58:48.374Z,102006.50
2019-02-04T15:01:10.208Z,101999.50
2019-02-04T15:02:30.108Z,102001.35
2019-02-04T15:06:04.797Z,102001.67
2019-02-04T15:12:08.049Z,101994.62
2019-02-04T15:17:11.585Z,101988.42
2019-02-04T15:20:47.046Z,101973.72
2019-02-04T15:23:22.330Z,101992.72
2019-02-04T15:26:05.733Z,101986.98
2019-02-04T15:27:22.753Z,101991.36
2019-02-04T15:28:35.465Z,101970.11
2019-02-04T15:33:38.205Z,101980.88
2019-02-04T15:34:48.626Z,101995.80
2019-02-04T15:37:13.240Z,101985.52
2019-02-04T15:52:45.509Z,101989.87
2019-02-04T15:54:49.441Z,101993.69
2019-02-04T15:55:54.137Z,101987.62
2019-02-04T15:56:58.595Z,101985.92
2019-02-04T16:04:29.247Z,101994.89
2019-02-04T16:05:33.402Z,101999.63
2019-02-04T16:06:37.783Z,102004.36
2019-02-04T16:07:42.198Z,102008.67
2019-02-04T16:11:58.452Z,102010.77
2019-02-04T16:17:18.953Z,102013.70
2019-02-04T16:21:34.304Z,102010.78
2019-02-04T16:29:00.008Z,102006.20
2019-02-04T16:30:09.206Z,102007.85
2019-02-04T16:31:13.350Z,102008.32
2019-02-04T16:36:30.988Z,102006.20
2019-02-04T16:38:38.747Z,102005.67
2019-02-04T16:41:49.633Z,101998.38
2019-02-04T16:42:54.016Z,102007.50
2019-02-04T16:45:01.772Z,102007.44
2019-02-04T16:46:06.179Z,102000.56
2019-02-04T16:49:17.323Z,102001.67
2019-02-04T16:53:35.259Z,102009.08
2019-02-04T16:54:39.398Z,102009.91
2019-02-04T16:55:43.797Z,102002.20
2019-02-04T16:59:59.756Z,102008.27
2019-02-04T17:01:04.463Z,102006.55
2019-02-04T17:02:08.845Z,102006.97
2019-02-04T17:04:16.916Z,102002.55
2019-02-04T17:06:25.774Z,102002.67
2019-02-04T17:07:30.164Z,102012.55
2019-02-04T17:08:34.551Z,102014.31
2019-02-04T17:09:39.723Z,102013.44
2019-02-04T17:10:44.130Z,102018.20
2019-02-04T17:11:48.272Z,102013.02
2019-02-04T17:12:53.033Z,102018.61
2019-02-04T17:17:07.303Z,102020.37
2019-02-04T17:18:11.690Z,102022.08
2019-02-04T17:19:16.080Z,102021.25
2019-02-04T17:22:32.165Z,102024.25
2019-02-04T17:24:39.938Z,102032.83
2019-02-04T17:26:47.481Z,102033.30
2019-02-04T17:27:51.876Z,102038.89
2019-02-04T17:28:56.580Z,102034.59
2019-02-04T17:30:00.827Z,102038.06
2019-02-04T17:32:08.494Z,102032.48
2019-02-04T17:33:12.914Z,102038.89
2019-02-04T17:35:20.786Z,102037.19
2019-02-04T17:37:28.553Z,102041.95
2019-02-04T17:38:32.719Z,102041.47
2019-02-04T17:39:37.129Z,102043.17
2019-02-04T17:41:45.009Z,102045.00
2019-02-04T17:42:49.552Z,102049.77
2019-02-04T17:43:54.252Z,102044.18
2019-02-04T17:44:59.875Z,102042.41
2019-02-04T17:48:11.980Z,102039.36
2019-02-04T17:49:16.191Z,102040.24
2019-02-04T17:50:21.499Z,102045.00
2019-02-04T17:52:29.131Z,102055.34
2019-02-04T17:56:44.695Z,102048.35
2019-02-04T18:01:00.447Z,102049.23
2019-02-04T18:02:04.836Z,102054.47
2019-02-04T18:04:12.384Z,102054.05
2019-02-04T18:07:23.633Z,102070.45
2019-02-04T18:11:38.253Z,102067.90
2019-02-04T18:12:42.649Z,102056.67
2019-02-04T18:14:50.464Z,102066.17
2019-02-04T18:16:58.043Z,102064.44
2019-02-04T18:18:02.213Z,102077.81
2019-02-04T18:19:06.363Z,102074.37
2019-02-04T18:20:12.512Z,102068.31
2019-02-04T18:21:16.711Z,102074.37
2019-02-04T18:22:21.146Z,102073.08
2019-02-04T18:24:28.711Z,102072.19
2019-02-04T18:25:33.415Z,102080.39
2019-02-04T18:26:37.834Z,102073.05
2019-02-04T18:30:52.411Z,102083.39
2019-02-04T18:31:56.813Z,102071.38
2019-02-04T18:33:01.223Z,102083.48
2019-02-04T18:34:05.937Z,102080.48
2019-02-04T18:35:12.058Z,102084.30
2019-02-04T18:36:16.487Z,102088.19
2019-02-04T18:38:24.260Z,102085.19
2019-02-04T18:39:28.979Z,102091.24
2019-02-04T18:40:33.157Z,102081.72
2019-02-04T18:41:37.521Z,102084.27
2019-02-04T18:42:41.935Z,102091.59
2019-02-04T18:46:56.907Z,102096.77
2019-02-04T18:51:13.706Z,102098.53
2019-02-04T18:54:24.861Z,102101.12
2019-02-04T18:59:48.389Z,102111.47
2019-02-04T19:00:52.505Z,102115.41
2019-02-04T19:01:57.019Z,102116.70
2019-02-04T19:04:06.722Z,102110.23
2019-02-04T19:06:14.561Z,102109.89
2019-02-04T19:09:25.453Z,102107.71
2019-02-04T19:10:30.014Z,102113.77
2019-02-04T19:15:47.917Z,102105.95
2019-02-04T19:21:11.549Z,102105.53
2019-02-04T19:22:15.963Z,102104.30
2019-02-04T19:25:27.111Z,102107.36
2019-02-04T19:28:38.243Z,102121.12
2019-02-04T19:32:57.171Z,102102.59
2019-02-04T19:35:07.999Z,102103.89
2019-02-04T19:36:12.577Z,102102.59
2019-02-04T19:38:20.639Z,102107.36
2019-02-04T19:41:31.798Z,102104.77
2019-02-04T19:50:00.825Z,102126.83
2019-02-04T19:51:05.360Z,102116.89
2019-02-04T19:52:10.238Z,102114.71
2019-02-04T19:53:14.429Z,102119.06
2019-02-04T19:55:21.964Z,102109.56
2019-02-04T19:58:33.190Z,102109.56
2019-02-04T19:59:37.335Z,102110.04
2019-02-04T20:01:44.893Z,102104.39
2019-02-04T20:02:49.917Z,102109.16
2019-02-04T20:04:57.504Z,102120.80
2019-02-04T20:09:12.356Z,102121.27
2019-02-04T20:11:22.237Z,102129.51
2019-02-04T20:12:26.372Z,102126.92
2019-02-04T20:13:30.769Z,102129.91
2019-02-04T20:15:38.280Z,102132.98
2019-02-04T20:18:49.200Z,102123.92
2019-02-04T20:19:53.408Z,102127.39
2019-02-04T20:22:01.284Z,102135.97
2019-02-04T20:23:05.704Z,102130.80
2019-02-04T20:24:10.093Z,102134.68
2019-02-04T20:25:21.493Z,102130.39
2019-02-04T20:29:36.767Z,102142.98
2019-02-04T20:32:49.773Z,102152.03
2019-02-04T20:33:54.164Z,102152.92
2019-02-04T20:39:13.654Z,102158.97
2019-02-04T20:40:20.598Z,102155.09
2019-02-04T20:41:24.998Z,102156.39
2019-02-04T20:42:29.400Z,102157.27
2019-02-04T20:43:33.800Z,102157.27
2019-02-04T20:46:44.969Z,102164.22
2019-02-04T20:49:57.089Z,102168.09
2019-02-04T20:51:01.584Z,102171.09
2019-02-04T20:52:05.782Z,102167.62
2019-02-04T20:53:10.500Z,102174.59
2019-02-04T20:54:20.115Z,102173.30
2019-02-04T20:57:28.283Z,102165.95
2019-02-04T20:58:32.432Z,102166.01
2019-02-04T20:59:36.825Z,102166.42
2019-02-04T21:00:41.225Z,102158.25
2019-02-04T21:01:45.384Z,102164.72
2019-02-04T21:03:52.907Z,102165.13
2019-02-04T21:04:57.160Z,102156.95
2019-02-04T21:06:01.334Z,102156.95
2019-02-04T21:07:05.773Z,102160.42
2019-02-04T21:08:10.179Z,102154.84
2019-02-04T21:10:20.196Z,102153.07
2019-02-04T21:12:28.749Z,102151.38
2019-02-04T21:20:56.847Z,102151.02
2019-02-04T21:22:01.349Z,102153.61
2019-02-04T21:23:05.762Z,102145.84
2019-02-04T21:25:13.872Z,102154.49
2019-02-04T21:26:18.024Z,102158.38
2019-02-04T21:27:22.188Z,102168.31
2019-02-04T21:30:36.445Z,102160.61
2019-02-04T21:31:40.854Z,102165.37
2019-02-04T21:32:45.253Z,102166.20
2019-02-04T21:33:49.469Z,102160.20
2019-02-04T21:34:53.867Z,102168.38
2019-02-04T21:35:58.034Z,102167.56
2019-02-04T21:37:02.189Z,102171.88
2019-02-04T21:38:06.384Z,102174.88
2019-02-04T21:40:15.345Z,102164.97
2019-02-04T21:41:20.892Z,102161.53
2019-02-04T21:44:32.799Z,102184.41
2019-02-04T21:45:36.955Z,102190.88
2019-02-04T21:48:48.107Z,102190.94
2019-02-04T21:54:06.074Z,102203.47
2019-02-04T21:55:11.507Z,102204.35
2019-02-04T21:56:16.219Z,102202.17
2019-02-04T21:58:23.979Z,102200.47
2019-02-04T22:00:35.383Z,102192.71
2019-02-04T22:02:43.147Z,102195.30
2019-02-04T22:04:50.685Z,102189.30
2019-02-04T22:05:54.837Z,102185.83
2019-02-04T22:11:18.785Z,102176.42
2019-02-04T22:17:40.115Z,102173.84
2019-02-04T22:19:48.935Z,102176.42
2019-02-04T22:21:56.991Z,102182.08
2019-02-04T22:23:01.443Z,102179.08
2019-02-04T22:24:05.851Z,102183.80
2019-02-04T22:25:19.669Z,102189.87
2019-02-04T22:26:19.159Z,102179.48
2019-02-04T22:28:26.925Z,102177.34
2019-02-04T22:29:31.781Z,102177.34
2019-02-04T22:35:53.050Z,102190.75
2019-02-04T22:39:06.975Z,102196.88
2019-02-04T22:43:33.960Z,102194.28
2019-02-04T22:44:39.669Z,102195.58
2019-02-04T22:46:47.476Z,102199.87
2019-02-04T22:47:52.186Z,102199.87
2019-02-04T22:51:03.155Z,102199.94
2019-02-04T22:52:07.566Z,102211.58
2019-02-04T22:54:15.164Z,102221.94
2019-02-04T22:55:31.015Z,102217.17
2019-02-04T23:03:14.260Z,102217.23
2019-02-04T23:04:19.630Z,102218.53
2019-02-04T23:06:27.394Z,102221.59
2019-02-04T23:07:31.812Z,102226.77
2019-02-04T23:11:46.093Z,102234.13
2019-02-04T23:12:50.243Z,102231.94
2019-02-04T23:13:54.709Z,102229.35
2019-02-04T23:14:58.849Z,102231.56
2019-02-04T23:17:06.401Z,102232.03
2019-02-04T23:20:17.292Z,102235.89
2019-02-04T23:21:21.979Z,102235.03
2019-02-04T23:25:43.602Z,102245.80
2019-02-04T23:34:07.517Z,102251.92
2019-02-04T23:35:11.940Z,102252.40
2019-02-04T23:37:20.143Z,102245.05
2019-02-04T23:40:31.320Z,102261.05
2019-02-04T23:45:49.501Z,102267.11
2019-02-04T23:47:57.626Z,102269.70
2019-02-04T23:49:01.781Z,102267.58
2019-02-04T23:51:24.222Z,102267.58
2019-02-04T23:53:32.019Z,102269.35
2019-02-04T23:54:36.831Z,102279.70
2019-02-04T23:57:47.715Z,102283.59
2019-02-04T23:59:56.255Z,102286.11
